createdAt,value
2023-04-04T00:02:17.133Z,61.92
2023-04-04T00:04:47.132Z,62.08
2023-04-04T00:07:16.938Z,62.25
2023-04-04T00:09:47.077Z,62.04
2023-04-04T00:12:17.564Z,62.39
2023-04-04T00:14:47.690Z,61.87
2023-04-04T00:17:17.292Z,61.71
2023-04-04T00:19:47.148Z,61.88
2023-04-04T00:22:19.073Z,61.78
2023-04-04T00:24:48.981Z,61.78
2023-04-04T00:27:18.754Z,62.14
2023-04-04T00:29:48.560Z,61.96
2023-04-04T00:32:18.352Z,61.45
2023-04-04T00:34:49.627Z,62.24
2023-04-04T00:37:19.408Z,61.97
2023-04-04T00:39:49.801Z,62.05
2023-04-04T00:42:19.724Z,61.80
2023-04-04T00:44:49.798Z,62.70
2023-04-04T00:47:25.546Z,62.84
2023-04-04T00:49:55.620Z,62.80
2023-04-04T00:52:25.507Z,63.42
2023-04-04T00:54:57.708Z,63.70
2023-04-04T00:57:29.940Z,63.41
2023-04-04T01:00:02.769Z,63.10
2023-04-04T01:02:32.768Z,63.50
2023-04-04T01:05:04.586Z,63.49
2023-04-04T01:07:37.118Z,63.98
2023-04-04T01:10:10.899Z,63.94
2023-04-04T01:12:42.701Z,64.62
2023-04-04T01:15:12.927Z,65.78
2023-04-04T01:17:44.576Z,65.78
2023-04-04T01:20:16.562Z,65.13
2023-04-04T01:22:50.461Z,65.30
2023-04-04T01:25:23.756Z,64.74
2023-04-04T01:27:56.324Z,64.88
2023-04-04T01:30:29.564Z,64.37
2023-04-04T01:33:05.554Z,64.22
2023-04-04T01:35:50.922Z,65.02
2023-04-04T01:38:41.666Z,64.56
2023-04-04T01:41:13.401Z,64.56
2023-04-04T01:43:48.056Z,64.85
2023-04-04T01:46:20.605Z,64.73
2023-04-04T01:48:51.811Z,64.60
2023-04-04T01:51:24.066Z,64.65
2023-04-04T01:53:54.916Z,64.86
2023-04-04T01:56:25.378Z,64.65
2023-04-04T01:58:55.228Z,64.66
2023-04-04T02:01:25.126Z,64.79
2023-04-04T02:03:55.031Z,65.16
2023-04-04T02:06:24.564Z,65.27
2023-04-04T02:08:56.102Z,65.23
2023-04-04T02:11:26.084Z,65.22
2023-04-04T02:13:55.936Z,65.22
2023-04-04T02:16:27.448Z,64.72
2023-04-04T02:18:57.400Z,64.99
2023-04-04T02:21:27.281Z,65.07
2023-04-04T02:23:57.057Z,65.14
2023-04-04T02:26:26.533Z,64.83
2023-04-04T02:28:56.729Z,65.26
2023-04-04T02:31:27.200Z,64.61
2023-04-04T02:33:57.675Z,64.61
2023-04-04T02:36:27.666Z,65.38
2023-04-04T02:38:58.330Z,65.60
2023-04-04T02:41:28.974Z,65.60
2023-04-04T02:43:59.759Z,65.19
2023-04-04T02:46:29.644Z,65.41
2023-04-04T02:49:02.008Z,65.56
2023-04-04T02:51:33.450Z,65.47
2023-04-04T02:54:05.297Z,65.69
2023-04-04T02:56:38.659Z,65.69
2023-04-04T02:59:08.628Z,66.02
2023-04-04T03:01:38.574Z,66.41
2023-04-04T03:04:10.359Z,66.85
2023-04-04T03:06:42.165Z,66.61
2023-04-04T03:09:12.279Z,67.04
2023-04-04T03:11:42.859Z,66.62
2023-04-04T03:14:12.715Z,66.62
2023-04-04T03:16:42.678Z,66.31
2023-04-04T03:19:12.686Z,66.66
2023-04-04T03:21:42.453Z,66.53
2023-04-04T03:24:12.566Z,66.63
2023-04-04T03:26:43.040Z,66.40
2023-04-04T03:29:13.738Z,66.53
2023-04-04T03:31:44.033Z,66.91
2023-04-04T03:34:13.700Z,66.80
2023-04-04T03:36:46.603Z,67.07
2023-04-04T03:39:17.052Z,67.70
2023-04-04T03:41:46.668Z,67.55
2023-04-04T03:44:16.618Z,67.45
2023-04-04T03:46:46.615Z,67.51
2023-04-04T03:49:16.870Z,67.61
2023-04-04T03:51:46.714Z,68.03
2023-04-04T03:54:17.512Z,67.35
2023-04-04T03:56:47.990Z,67.07
2023-04-04T03:59:18.140Z,67.27
2023-04-04T04:01:48.867Z,67.09
2023-04-04T04:04:18.810Z,67.70
2023-04-04T04:06:49.027Z,68.16
2023-04-04T04:09:19.068Z,68.27
2023-04-04T04:11:48.876Z,68.03
2023-04-04T04:14:18.626Z,68.22
2023-04-04T04:16:48.497Z,68.03
2023-04-04T04:19:20.464Z,68.36
2023-04-04T04:21:50.506Z,68.36
2023-04-04T04:24:20.024Z,68.72
2023-04-04T04:26:49.825Z,68.62
2023-04-04T04:29:19.679Z,68.62
2023-04-04T04:31:49.617Z,68.85
2023-04-04T04:34:20.118Z,68.66
2023-04-04T04:36:50.594Z,68.88
2023-04-04T04:39:34.157Z,69.48
2023-04-04T04:42:12.061Z,69.66
2023-04-04T04:44:43.550Z,69.82
2023-04-04T04:47:13.753Z,69.82
2023-04-04T04:49:45.453Z,69.40
2023-04-04T04:52:15.427Z,69.53
2023-04-04T04:54:45.850Z,69.84
2023-04-04T04:57:15.988Z,69.39
2023-04-04T04:59:46.813Z,69.24
2023-04-04T05:02:17.577Z,68.64
2023-04-04T05:04:48.543Z,68.72
2023-04-04T05:07:18.594Z,68.98
2023-04-04T05:09:48.919Z,69.17
2023-04-04T05:12:19.577Z,68.92
2023-04-04T05:14:50.235Z,68.71
2023-04-04T05:17:21.888Z,69.10
2023-04-04T05:19:52.355Z,69.44
2023-04-04T05:22:22.920Z,69.70
2023-04-04T05:24:54.101Z,69.63
2023-04-04T05:27:26.140Z,69.95
2023-04-04T05:29:57.651Z,69.88
2023-04-04T05:32:29.195Z,69.85
2023-04-04T05:35:01.177Z,69.73
2023-04-04T05:37:33.682Z,69.97
2023-04-04T05:40:07.259Z,70.76
2023-04-04T05:42:37.361Z,70.73
2023-04-04T05:45:08.718Z,70.45
2023-04-04T05:47:38.570Z,70.91
2023-04-04T05:50:09.988Z,70.32
2023-04-04T05:52:40.472Z,69.93
2023-04-04T05:55:12.065Z,69.60
2023-04-04T05:57:51.684Z,69.65
2023-04-04T06:00:23.169Z,69.46
2023-04-04T06:02:56.241Z,69.46
2023-04-04T06:05:27.142Z,69.42
2023-04-04T06:07:57.033Z,69.59
2023-04-04T06:10:26.674Z,69.59
2023-04-04T06:12:57.945Z,69.81
2023-04-04T06:15:27.928Z,69.94
2023-04-04T06:17:58.814Z,69.72
2023-04-04T06:20:30.304Z,69.05
2023-04-04T06:23:01.746Z,69.06
2023-04-04T06:25:32.511Z,68.73
2023-04-04T06:28:03.888Z,68.81
2023-04-04T06:30:38.034Z,68.81
2023-04-04T06:33:08.963Z,68.18
2023-04-04T06:35:40.554Z,67.42
2023-04-04T06:38:11.625Z,67.28
2023-04-04T06:40:41.885Z,67.02
2023-04-04T06:43:12.054Z,66.03
2023-04-04T06:45:43.702Z,65.79
2023-04-04T06:48:13.624Z,65.79
2023-04-04T06:50:43.620Z,64.66
2023-04-04T06:53:15.198Z,64.47
2023-04-04T06:55:46.208Z,64.21
2023-04-04T06:58:16.005Z,63.78
2023-04-04T07:00:46.683Z,62.34
2023-04-04T07:03:17.668Z,62.58
2023-04-04T07:05:47.553Z,61.84
2023-04-04T07:08:17.189Z,62.04
2023-04-04T07:10:47.295Z,59.93
2023-04-04T07:13:17.401Z,59.93
2023-04-04T07:15:50.818Z,58.91
2023-04-04T07:18:20.606Z,58.34
2023-04-04T07:20:50.414Z,57.17
2023-04-04T07:23:20.182Z,56.41
2023-04-04T07:25:49.965Z,56.46
2023-04-04T07:28:19.540Z,55.81
2023-04-04T07:30:49.532Z,55.12
2023-04-04T07:33:19.257Z,53.98
2023-04-04T07:35:49.078Z,54.62
2023-04-04T07:38:18.937Z,53.74
2023-04-04T07:40:51.645Z,51.80
2023-04-04T07:43:21.418Z,50.92
2023-04-04T07:45:51.885Z,49.87
2023-04-04T07:48:22.971Z,49.30
2023-04-04T07:50:53.207Z,48.59
2023-04-04T07:53:23.434Z,46.56
2023-04-04T07:55:53.296Z,47.98
2023-04-04T07:58:23.061Z,47.77
2023-04-04T08:00:53.241Z,48.18
2023-04-04T08:03:24.235Z,46.79
2023-04-04T08:05:54.217Z,47.29
2023-04-04T08:08:24.092Z,43.74
2023-04-04T08:10:53.896Z,45.53
2023-04-04T08:13:23.699Z,45.33
2023-04-04T08:15:53.515Z,43.86
2023-04-04T08:18:23.660Z,44.39
2023-04-04T08:20:53.135Z,43.26
2023-04-04T08:23:22.979Z,42.04
2023-04-04T08:25:53.930Z,42.04
2023-04-04T08:28:23.744Z,40.70
2023-04-04T08:30:56.157Z,39.33
2023-04-04T08:33:37.323Z,40.50
2023-04-04T08:35:58.268Z,40.96
2023-04-04T08:38:28.133Z,40.45
2023-04-04T08:40:58.552Z,36.93
2023-04-04T08:43:29.062Z,36.81
2023-04-04T08:45:59.203Z,39.67
2023-04-04T08:48:31.264Z,39.18
2023-04-04T08:51:01.372Z,38.08
2023-04-04T08:53:32.203Z,38.08
2023-04-04T08:56:02.166Z,39.27
2023-04-04T08:58:32.005Z,39.27
2023-04-04T09:01:01.982Z,38.35
2023-04-04T09:03:34.984Z,36.69
2023-04-04T09:06:07.216Z,36.87
2023-04-04T09:08:37.156Z,36.94
2023-04-04T09:11:07.635Z,37.61
2023-04-04T09:13:40.898Z,38.06
2023-04-04T09:16:11.010Z,37.38
2023-04-04T09:18:41.017Z,36.12
2023-04-04T09:21:12.329Z,36.91
2023-04-04T09:23:44.722Z,37.04
2023-04-04T09:26:16.160Z,35.90
2023-04-04T09:28:49.001Z,34.76
2023-04-04T09:31:18.851Z,37.96
2023-04-04T09:33:50.585Z,35.48
2023-04-04T09:36:20.966Z,35.35
2023-04-04T09:38:54.238Z,34.89
2023-04-04T09:41:26.198Z,33.50
2023-04-04T09:43:58.528Z,35.22
2023-04-04T09:46:28.184Z,35.60
2023-04-04T09:48:58.411Z,34.85
2023-04-04T09:51:40.867Z,35.61
2023-04-04T09:54:18.734Z,34.32
2023-04-04T09:56:45.055Z,36.03
2023-04-04T09:59:16.201Z,36.12
2023-04-04T10:01:47.676Z,34.89
2023-04-04T10:04:17.475Z,34.72
2023-04-04T10:06:47.593Z,33.54
2023-04-04T10:09:17.581Z,34.01
2023-04-04T10:11:48.500Z,33.37
2023-04-04T10:14:18.080Z,33.59
2023-04-04T10:16:47.951Z,32.43
2023-04-04T10:19:19.583Z,32.43
2023-04-04T10:21:49.796Z,34.04
2023-04-04T10:24:19.678Z,33.85
2023-04-04T10:26:49.476Z,32.78
2023-04-04T10:29:19.453Z,33.88
2023-04-04T10:31:51.672Z,34.40
2023-04-04T10:34:30.330Z,34.57
2023-04-04T10:37:12.295Z,34.19
2023-04-04T10:39:58.488Z,34.18
2023-04-04T10:42:31.317Z,34.05
2023-04-04T10:45:16.954Z,35.63
2023-04-04T10:47:36.038Z,35.14
2023-04-04T10:50:09.153Z,32.51
2023-04-04T10:52:44.273Z,35.24
2023-04-04T10:55:15.910Z,34.38
2023-04-04T10:57:49.962Z,34.46
2023-04-04T11:00:22.537Z,33.62
2023-04-04T11:03:00.408Z,34.45
2023-04-04T11:05:40.237Z,32.85
2023-04-04T11:08:14.253Z,33.55
2023-04-04T11:10:46.409Z,34.19
2023-04-04T11:13:22.008Z,34.79
2023-04-04T11:15:59.941Z,34.67
2023-04-04T11:18:45.505Z,33.33
2023-04-04T11:21:27.292Z,31.76
2023-04-04T11:24:08.979Z,31.76
2023-04-04T11:26:39.638Z,33.86
2023-04-04T11:29:09.675Z,31.34
2023-04-04T11:31:42.552Z,31.34
2023-04-04T11:34:15.347Z,33.54
2023-04-04T11:36:48.268Z,32.92
2023-04-04T11:39:23.358Z,31.52
2023-04-04T11:42:09.076Z,31.58
2023-04-04T11:45:04.791Z,32.74
2023-04-04T11:47:35.010Z,29.92
2023-04-04T11:50:10.899Z,31.42
2023-04-04T11:52:43.423Z,31.42
2023-04-04T11:55:18.888Z,32.04
2023-04-04T11:57:54.221Z,32.24
2023-04-04T12:00:32.680Z,32.11
2023-04-04T12:03:02.678Z,32.11
2023-04-04T12:05:32.949Z,32.54
2023-04-04T12:08:04.369Z,30.66
2023-04-04T12:10:38.988Z,30.67
2023-04-04T12:13:09.933Z,30.22
2023-04-04T12:15:40.009Z,30.50
2023-04-04T12:18:10.279Z,29.86
2023-04-04T12:20:42.026Z,30.04
2023-04-04T12:23:11.827Z,30.32
2023-04-04T12:25:43.818Z,28.15
2023-04-04T12:28:14.542Z,31.33
2023-04-04T12:30:45.990Z,31.95
2023-04-04T12:33:16.290Z,30.94
2023-04-04T12:35:49.628Z,30.63
2023-04-04T12:38:20.225Z,30.53
2023-04-04T12:40:52.175Z,30.55
2023-04-04T12:43:22.016Z,31.22
2023-04-04T12:45:52.150Z,31.31
2023-04-04T12:48:25.325Z,31.64
2023-04-04T12:50:57.706Z,30.51
2023-04-04T12:53:30.269Z,30.51
2023-04-04T12:56:06.627Z,30.20
2023-04-04T12:58:37.744Z,29.40
2023-04-04T13:01:08.274Z,30.06
2023-04-04T13:03:39.297Z,29.95
2023-04-04T13:06:19.770Z,29.62
2023-04-04T13:08:54.826Z,29.17
2023-04-04T13:11:25.550Z,29.84
2023-04-04T13:14:03.396Z,30.88
2023-04-04T13:16:37.375Z,31.62
2023-04-04T13:19:08.326Z,30.89
2023-04-04T13:21:39.644Z,31.20
2023-04-04T13:24:11.149Z,32.60
2023-04-04T13:26:41.439Z,31.47
2023-04-04T13:29:11.807Z,30.31
2023-04-04T13:31:41.702Z,31.33
2023-04-04T13:34:11.491Z,31.90
2023-04-04T13:36:41.382Z,31.03
2023-04-04T13:39:11.552Z,31.64
2023-04-04T13:41:41.358Z,32.03
2023-04-04T13:44:16.575Z,30.77
2023-04-04T13:46:46.710Z,31.46
2023-04-04T13:49:16.536Z,30.73
2023-04-04T13:51:46.426Z,31.48
2023-04-04T13:54:17.679Z,30.84
2023-04-04T13:56:47.483Z,30.42
2023-04-04T13:59:17.553Z,31.34
2023-04-04T14:01:47.640Z,31.35
2023-04-04T14:04:23.747Z,30.78
2023-04-04T14:06:49.422Z,31.31
2023-04-04T14:09:19.639Z,30.64
2023-04-04T14:11:49.479Z,31.89
2023-04-04T14:14:19.292Z,31.62
2023-04-04T14:16:49.165Z,32.11
2023-04-04T14:19:18.982Z,31.30
2023-04-04T14:21:49.990Z,31.42
2023-04-04T14:24:19.823Z,30.89
2023-04-04T14:26:49.671Z,30.37
2023-04-04T14:29:19.484Z,31.28
2023-04-04T14:31:49.397Z,30.40
2023-04-04T14:34:19.241Z,31.35
2023-04-04T14:36:49.665Z,31.61
2023-04-04T14:39:19.629Z,30.81
2023-04-04T14:41:49.607Z,30.81
2023-04-04T14:44:21.183Z,30.49
2023-04-04T14:46:53.065Z,31.71
2023-04-04T14:49:23.452Z,32.15
2023-04-04T14:51:53.227Z,31.21
2023-04-04T14:54:22.739Z,30.88
2023-04-04T14:56:52.772Z,31.23
2023-04-04T14:59:22.701Z,28.86
2023-04-04T15:01:52.534Z,31.13
2023-04-04T15:04:22.368Z,31.46
2023-04-04T15:06:52.167Z,30.94
2023-04-04T15:09:23.136Z,31.59
2023-04-04T15:11:52.943Z,31.59
2023-04-04T15:14:23.640Z,31.17
2023-04-04T15:16:54.196Z,29.80
2023-04-04T15:19:24.352Z,30.96
2023-04-04T15:21:55.788Z,30.63
2023-04-04T15:24:25.891Z,30.62
2023-04-04T15:26:57.803Z,30.62
2023-04-04T15:29:28.299Z,30.65
2023-04-04T15:31:58.159Z,30.21
2023-04-04T15:34:27.717Z,30.88
2023-04-04T15:36:59.677Z,30.99
2023-04-04T15:39:30.500Z,30.64
2023-04-04T15:42:01.215Z,31.15
2023-04-04T15:44:31.700Z,30.73
2023-04-04T15:47:01.568Z,31.02
2023-04-04T15:49:33.765Z,30.38
2023-04-04T15:52:04.749Z,30.12
2023-04-04T15:54:34.604Z,31.90
2023-04-04T15:57:04.476Z,31.47
2023-04-04T15:59:34.375Z,31.22
2023-04-04T16:02:06.490Z,30.63
2023-04-04T16:04:37.247Z,31.48
2023-04-04T16:07:07.342Z,31.40
2023-04-04T16:09:37.116Z,30.86
2023-04-04T16:12:07.059Z,32.01
2023-04-04T16:14:36.848Z,30.62
2023-04-04T16:17:06.665Z,31.41
2023-04-04T16:19:36.462Z,31.41
2023-04-04T16:22:06.393Z,31.37
2023-04-04T16:24:36.327Z,30.96
2023-04-04T16:27:06.301Z,30.63
2023-04-04T16:29:36.210Z,31.50
2023-04-04T16:32:07.822Z,30.96
2023-04-04T16:34:38.868Z,30.62
2023-04-04T16:37:10.353Z,31.87
2023-04-04T16:39:40.905Z,31.66
2023-04-04T16:42:10.411Z,31.83
2023-04-04T16:44:40.519Z,32.13
2023-04-04T16:47:11.035Z,30.76
2023-04-04T16:49:42.773Z,31.70
2023-04-04T16:52:14.769Z,31.70
2023-04-04T16:54:44.649Z,30.98
2023-04-04T16:57:14.772Z,31.42
2023-04-04T16:59:44.576Z,31.87
2023-04-04T17:02:16.381Z,32.04
2023-04-04T17:04:46.354Z,31.54
2023-04-04T17:07:16.239Z,32.13
2023-04-04T17:09:47.342Z,33.20
2023-04-04T17:12:17.699Z,32.96
2023-04-04T17:14:47.259Z,33.33
2023-04-04T17:17:17.344Z,33.87
2023-04-04T17:19:47.192Z,33.82
2023-04-04T17:22:17.089Z,33.70
2023-04-04T17:24:46.869Z,34.33
2023-04-04T17:27:16.814Z,33.68
2023-04-04T17:29:46.605Z,34.20
2023-04-04T17:32:18.477Z,33.43
2023-04-04T17:34:48.563Z,32.90
2023-04-04T17:37:18.644Z,32.90
2023-04-04T17:39:49.101Z,33.57
2023-04-04T17:42:18.622Z,34.24
2023-04-04T17:44:48.898Z,34.73
2023-04-04T17:47:19.369Z,34.62
2023-04-04T17:49:50.791Z,35.05
2023-04-04T17:52:20.703Z,35.26
2023-04-04T17:54:52.458Z,35.19
2023-04-04T17:57:22.531Z,35.15
2023-04-04T17:59:52.823Z,35.26
2023-04-04T18:02:22.642Z,35.69
2023-04-04T18:04:52.558Z,36.06
2023-04-04T18:07:22.377Z,35.79
2023-04-04T18:09:52.192Z,35.73
2023-04-04T18:12:22.346Z,36.10
2023-04-04T18:14:52.194Z,36.10
2023-04-04T18:17:21.975Z,35.62
2023-04-04T18:19:53.578Z,36.34
2023-04-04T18:22:23.087Z,36.25
2023-04-04T18:24:53.160Z,37.36
2023-04-04T18:27:22.950Z,36.60
2023-04-04T18:29:52.837Z,36.54
2023-04-04T18:32:24.085Z,36.29
2023-04-04T18:34:53.968Z,37.03
2023-04-04T18:37:23.841Z,36.79
2023-04-04T18:39:53.743Z,37.28
2023-04-04T18:42:25.097Z,37.55
2023-04-04T18:44:55.000Z,37.45
2023-04-04T18:47:24.827Z,38.06
2023-04-04T18:49:54.765Z,38.70
2023-04-04T18:52:24.584Z,39.08
2023-04-04T18:54:54.687Z,38.84
2023-04-04T18:57:24.654Z,39.13
2023-04-04T18:59:54.468Z,38.86
2023-04-04T19:02:24.272Z,38.96
2023-04-04T19:04:59.145Z,39.63
2023-04-04T19:07:31.003Z,39.44
2023-04-04T19:10:04.567Z,39.18
2023-04-04T19:12:35.422Z,40.22
2023-04-04T19:15:06.999Z,40.46
2023-04-04T19:17:36.835Z,40.42
2023-04-04T19:20:08.427Z,40.42
2023-04-04T19:22:38.597Z,40.69
2023-04-04T19:25:08.909Z,40.75
2023-04-04T19:27:39.084Z,40.33
2023-04-04T19:30:14.806Z,40.14
2023-04-04T19:32:44.633Z,40.62
2023-04-04T19:35:23.537Z,40.90
2023-04-04T19:37:53.674Z,41.66
2023-04-04T19:40:26.464Z,41.07
2023-04-04T19:42:56.555Z,41.07
2023-04-04T19:45:29.124Z,41.50
2023-04-04T19:47:59.326Z,42.38
2023-04-04T19:50:38.058Z,41.81
2023-04-04T19:53:08.147Z,42.38
2023-04-04T19:55:40.492Z,42.53
2023-04-04T19:58:13.900Z,43.13
2023-04-04T20:00:43.723Z,43.54
2023-04-04T20:03:37.015Z,45.05
2023-04-04T20:06:12.322Z,44.48
2023-04-04T20:08:46.492Z,43.98
2023-04-04T20:11:18.944Z,45.21
2023-04-04T20:13:50.774Z,45.01
2023-04-04T20:16:22.028Z,45.97
2023-04-04T20:18:52.940Z,46.58
2023-04-04T20:21:24.806Z,46.55
2023-04-04T20:23:57.755Z,46.59
2023-04-04T20:26:54.266Z,46.82
2023-04-04T20:29:32.838Z,47.01
2023-04-04T20:32:08.273Z,47.35
2023-04-04T20:34:44.567Z,47.60
2023-04-04T20:37:22.686Z,47.98
2023-04-04T20:39:58.549Z,48.11
2023-04-04T20:42:37.788Z,47.82
2023-04-04T20:45:11.153Z,46.70
2023-04-04T20:47:46.804Z,46.50
2023-04-04T20:50:27.185Z,47.16
2023-04-04T20:53:03.023Z,48.26
2023-04-04T20:55:34.876Z,48.25
2023-04-04T20:58:28.556Z,48.77
2023-04-04T21:01:00.148Z,48.95
2023-04-04T21:03:36.031Z,49.48
2023-04-04T21:06:13.914Z,49.81
2023-04-04T21:08:51.285Z,50.01
2023-04-04T21:11:32.814Z,49.55
2023-04-04T21:14:03.173Z,50.73
2023-04-04T21:16:32.998Z,50.26
2023-04-04T21:19:03.270Z,50.52
2023-04-04T21:21:33.154Z,50.52
2023-04-04T21:24:04.663Z,50.75
2023-04-04T21:26:38.985Z,50.71
2023-04-04T21:29:20.500Z,51.08
2023-04-04T21:31:52.937Z,51.36
2023-04-04T21:34:25.467Z,50.90
2023-04-04T21:36:57.323Z,51.37
2023-04-04T21:39:31.492Z,51.67
2023-04-04T21:42:05.934Z,50.90
2023-04-04T21:44:34.954Z,52.00
2023-04-04T21:47:04.590Z,51.75
2023-04-04T21:49:34.458Z,51.90
2023-04-04T21:52:04.269Z,51.90
2023-04-04T21:54:34.099Z,52.22
2023-04-04T21:57:03.875Z,51.90
2023-04-04T21:59:33.742Z,52.78
2023-04-04T22:02:03.622Z,52.40
2023-04-04T22:04:33.588Z,52.13
2023-04-04T22:07:03.379Z,52.88
2023-04-04T22:09:33.175Z,53.26
2023-04-04T22:12:03.270Z,53.61
2023-04-04T22:14:33.474Z,54.46
2023-04-04T22:17:03.232Z,54.47
2023-04-04T22:19:34.685Z,54.80
2023-04-04T22:22:05.338Z,54.44
2023-04-04T22:24:35.126Z,54.36
2023-04-04T22:27:05.116Z,55.11
2023-04-04T22:29:34.898Z,55.07
2023-04-04T22:32:04.831Z,55.48
2023-04-04T22:34:34.839Z,55.67
2023-04-04T22:37:05.421Z,55.58
2023-04-04T22:39:35.216Z,55.75
2023-04-04T22:42:05.326Z,56.22
2023-04-04T22:44:35.134Z,55.90
2023-04-04T22:47:06.184Z,56.72
2023-04-04T22:49:40.715Z,56.57
2023-04-04T22:52:14.740Z,56.64
2023-04-04T22:54:45.368Z,56.39
2023-04-04T22:57:15.619Z,55.92
2023-04-04T22:59:45.208Z,56.68
2023-04-04T23:02:17.500Z,57.07
2023-04-04T23:04:47.366Z,57.38
2023-04-04T23:07:17.145Z,57.68
2023-04-04T23:09:46.943Z,57.45
2023-04-04T23:12:17.949Z,57.22
2023-04-04T23:14:47.753Z,58.14
2023-04-04T23:17:17.550Z,58.11
2023-04-04T23:19:47.346Z,58.11
2023-04-04T23:22:18.756Z,58.63
2023-04-04T23:24:49.525Z,59.36
2023-04-04T23:27:21.098Z,59.36
2023-04-04T23:29:50.927Z,59.75
2023-04-04T23:32:21.209Z,59.65
2023-04-04T23:34:51.015Z,59.27
2023-04-04T23:37:22.153Z,60.26
2023-04-04T23:39:51.928Z,59.40
2023-04-04T23:42:21.487Z,59.65
2023-04-04T23:44:51.553Z,60.55
2023-04-04T23:47:21.830Z,60.17
2023-04-04T23:49:51.624Z,60.15
2023-04-04T23:52:21.319Z,60.15
2023-04-04T23:54:51.217Z,60.53
2023-04-04T23:57:21.095Z,60.92
2023-04-04T23:59:51.197Z,61.21
